Time;durP1;ratioP1;P1;durP2;ratioP2;P2;SDS_P1;SDS_P2;PMS_P1;PMS_P2;Temp;Humidity;BMP_temperature;BMP_pressure;BME280_temperature;BME280_humidity;BME280_pressure;Samples;Min_cycle;Max_cycle;Signal;HPM_P1;HPM_P2
2021/11/27 00:02:23;;;;;;;3.65;0.40;;;;;;;5.57;70.27;96222.13;4997137;28;20109;-74
2021/11/27 00:04:49;;;;;;;2.30;0.65;;;;;;;5.47;70.38;96226.88;5005032;28;20476;-72
2021/11/27 00:07:14;;;;;;;4.43;0.73;;;;;;;5.34;70.40;96255.94;5001666;28;20037;-72
2021/11/27 00:09:40;;;;;;;6.60;0.70;;;;;;;5.19;71.21;96246.28;5006407;28;20120;-72
2021/11/27 00:12:06;;;;;;;3.45;0.60;;;;;;;5.34;70.81;96265.78;4989836;28;20065;-72
2021/11/27 00:14:34;;;;;;;4.13;0.40;;;;;;;5.36;70.93;96260.94;4997867;28;20484;-72
2021/11/27 00:17:01;;;;;;;6.38;0.52;;;;;;;5.48;71.06;96290.63;4997760;28;20120;-72
2021/11/27 00:19:27;;;;;;;3.35;0.38;;;;;;;5.22;71.65;96285.72;4990288;28;20065;-72
2021/11/27 00:21:52;;;;;;;1.50;0.40;;;;;;;5.30;71.63;96310.16;4994493;28;20096;-72
2021/11/27 00:24:18;;;;;;;2.08;0.47;;;;;;;5.02;71.58;96323.41;5008261;28;20095;-72
2021/11/27 00:26:43;;;;;;;2.50;0.40;;;;;;;5.48;71.25;96297.84;4988234;28;20099;-72
2021/11/27 00:29:09;;;;;;;2.53;0.50;;;;;;;5.37;71.42;96342.59;4999467;28;20081;-72
2021/11/27 00:31:41;;;;;;;3.25;0.38;;;;;;;5.30;71.05;96328.84;4965821;28;20049;-72
2021/11/27 00:34:08;;;;;;;3.20;0.30;;;;;;;5.25;71.19;96340.38;5007103;28;20091;-72
2021/11/27 00:36:34;;;;;;;1.55;0.15;;;;;;;4.95;71.36;96323.75;4989373;28;20048;-72
2021/11/27 00:39:01;;;;;;;2.03;0.20;;;;;;;4.85;70.43;96330.06;5003738;28;20041;-72
2021/11/27 00:41:27;;;;;;;1.33;0.15;;;;;;;5.19;70.35;96370.88;4988039;28;20165;-72
2021/11/27 00:43:52;;;;;;;2.38;0.30;;;;;;;5.38;70.09;96360.19;4988116;28;20054;-72
2021/11/27 00:46:18;;;;;;;0.82;0.20;;;;;;;5.20;70.86;96396.47;4996194;28;20030;-72
2021/11/27 00:48:44;;;;;;;3.63;0.50;;;;;;;4.84;71.35;96392.47;4993294;28;20100;-72
2021/11/27 00:51:13;;;;;;;4.57;0.30;;;;;;;5.02;71.12;96398.09;4991856;28;20120;-72
2021/11/27 00:53:40;;;;;;;1.90;0.20;;;;;;;4.92;72.34;96434.50;4972209;28;20037;-72
2021/11/27 00:56:06;;;;;;;4.22;0.40;;;;;;;5.34;71.31;96424.03;5002899;28;20026;-72
2021/11/27 00:58:32;;;;;;;3.38;0.57;;;;;;;4.80;73.76;96444.78;5005364;28;20041;-72
2021/11/27 01:01:05;;;;;;;3.63;0.65;;;;;;;5.31;72.50;96439.81;4969362;28;20100;-72
2021/11/27 01:03:32;;;;;;;7.53;0.70;;;;;;;5.16;73.48;96443.50;5009265;28;20046;-72
2021/11/27 01:06:03;;;;;;;5.30;0.50;;;;;;;4.96;73.51;96454.16;4996505;28;20107;-72
2021/11/27 01:08:29;;;;;;;6.25;0.80;;;;;;;4.77;74.44;96480.78;5007078;28;20026;-71
2021/11/27 01:11:01;;;;;;;9.35;0.73;;;;;;;5.05;73.48;96467.66;4983956;28;20036;-72
2021/11/27 01:13:27;;;;;;;6.75;0.70;;;;;;;4.82;73.79;96485.28;5010190;28;20057;-71
2021/11/27 01:15:52;;;;;;;5.38;0.80;;;;;;;4.84;73.73;96472.47;4980969;28;20128;-68
2021/11/27 01:18:18;;;;;;;9.27;0.80;;;;;;;4.87;73.06;96489.75;5005991;28;20026;-69
2021/11/27 01:20:52;;;;;;;10.18;1.13;;;;;;;5.25;72.94;96479.13;5001443;28;20069;-70
2021/11/27 01:23:18;;;;;;;;;;;;;;;5.31;72.21;96479.84;4995196;28;20053;-71
2021/11/27 01:25:44;;;;;;;4.15;0.77;;;;;;;5.00;73.15;96497.06;5015779;28;19921;-71
2021/11/27 01:28:10;;;;;;;9.23;1.10;;;;;;;5.13;73.51;96514.25;4985704;28;20352;-72
2021/11/27 01:30:36;;;;;;;6.10;0.82;;;;;;;5.27;73.85;96501.78;5006868;28;20038;-69
2021/11/27 01:33:02;;;;;;;6.78;1.00;;;;;;;4.83;74.97;96502.88;5005357;28;20087;-66
2021/11/27 01:35:28;;;;;;;5.90;0.95;;;;;;;4.73;74.39;96517.09;4991269;28;20042;-67
2021/11/27 01:37:53;;;;;;;6.18;1.02;;;;;;;4.94;73.77;96514.19;5003342;28;20091;-68
2021/11/27 01:40:22;;;;;;;9.85;1.00;;;;;;;5.34;72.30;96500.63;4999363;28;20030;-69
2021/11/27 01:42:48;;;;;;;10.93;1.40;;;;;;;5.30;72.80;96507.63;5009274;28;20045;-70
2021/11/27 01:45:15;;;;;;;6.53;0.70;;;;;;;5.06;73.05;96513.81;5000889;28;20290;-70
2021/11/27 01:47:52;;;;;;;9.52;1.23;;;;;;;5.11;72.71;96527.06;4986557;28;20053;-71
2021/11/27 01:50:18;;;;;;;6.25;1.00;;;;;;;4.96;73.67;96525.38;4991603;28;20041;-70
2021/11/27 01:52:44;;;;;;;4.70;0.95;;;;;;;5.12;73.31;96534.00;5007569;28;20512;-71
2021/11/27 01:55:11;;;;;;;2.45;0.55;;;;;;;5.23;72.73;96531.97;5001823;28;20061;-71
2021/11/27 01:57:37;;;;;;;3.63;0.30;;;;;;;4.78;74.20;96556.25;4994508;28;20450;-71
2021/11/27 02:00:07;;;;;;;0.90;0.20;;;;;;;4.81;73.90;96563.69;5006773;28;20113;-72
2021/11/27 02:02:33;;;;;;;0.30;0.17;;;;;;;4.65;74.30;96553.19;5008086;28;20451;-71
2021/11/27 02:04:59;;;;;;;0.77;0.20;;;;;;;4.34;74.53;96579.31;4992006;28;20479;-69
2021/11/27 02:07:24;;;;;;;2.42;0.28;;;;;;;4.40;75.00;96573.66;5005486;28;20041;-68
2021/11/27 02:09:50;;;;;;;3.35;0.45;;;;;;;4.50;73.83;96570.13;4981558;28;20310;-68
2021/11/27 02:12:16;;;;;;;0.57;0.20;;;;;;;4.42;74.17;96584.06;5011217;28;20103;-69
2021/11/27 02:14:44;;;;;;;2.10;0.30;;;;;;;4.31;74.73;96593.22;4987245;28;20030;-68
2021/11/27 02:17:10;;;;;;;3.28;0.30;;;;;;;4.29;75.19;96601.47;5004645;28;20092;-69
2021/11/27 02:19:37;;;;;;;0.47;0.20;;;;;;;4.35;75.63;96603.00;5003034;28;20092;-69
2021/11/27 02:22:04;;;;;;;2.45;0.20;;;;;;;4.29;75.33;96608.69;4987194;28;20052;-69
2021/11/27 02:24:29;;;;;;;1.70;0.30;;;;;;;4.42;75.24;96593.91;5002443;28;20407;-69
2021/11/27 02:26:57;;;;;;;3.08;0.47;;;;;;;4.54;74.46;96605.78;4995297;28;20117;-69
2021/11/27 02:29:31;;;;;;;0.70;0.30;;;;;;;4.32;75.02;96605.44;5005087;28;20089;-69
2021/11/27 02:32:00;;;;;;;1.33;0.20;;;;;;;4.31;75.45;96646.50;5010885;28;20049;-71
2021/11/27 02:34:28;;;;;;;0.50;0.20;;;;;;;4.34;76.49;96637.94;4999209;28;20515;-68
2021/11/27 02:37:00;;;;;;;3.25;0.40;;;;;;;4.57;76.50;96640.97;5009180;28;20249;-66
2021/11/27 02:39:28;;;;;;;1.88;0.60;;;;;;;4.79;75.40;96651.16;5011309;28;20046;-67
2021/11/27 02:41:55;;;;;;;1.63;0.38;;;;;;;4.86;74.68;96688.97;5008527;28;20038;-67
2021/11/27 02:44:24;;;;;;;0.98;0.20;;;;;;;4.43;76.91;96670.13;4989393;28;20262;-67
2021/11/27 02:46:53;;;;;;;4.38;0.52;;;;;;;4.51;76.65;96680.19;4999571;28;20133;-67
2021/11/27 02:49:21;;;;;;;2.28;0.30;;;;;;;4.82;75.42;96706.59;5001273;28;20514;-68
2021/11/27 02:51:47;;;;;;;2.05;0.30;;;;;;;4.72;75.50;96706.69;5007471;28;20033;-68
2021/11/27 02:54:13;;;;;;;2.63;0.28;;;;;;;4.40;75.01;96716.78;4996583;28;20603;-66
2021/11/27 02:56:42;;;;;;;1.27;0.20;;;;;;;4.84;74.18;96720.47;5005573;28;20038;-66
2021/11/27 02:59:22;;;;;;;1.33;0.20;;;;;;;4.46;74.84;96736.97;4991603;28;20053;-67
2021/11/27 03:01:52;;;;;;;0.22;0.08;;;;;;;4.03;75.50;96736.69;5002628;28;20487;-67
2021/11/27 03:04:18;;;;;;;0.68;0.10;;;;;;;3.86;77.04;96758.34;4971973;28;20415;-67
2021/11/27 03:06:44;;;;;;;0.32;0.10;;;;;;;3.80;77.28;96747.69;5004317;28;20038;-67
2021/11/27 03:09:13;;;;;;;0.73;0.20;;;;;;;3.73;77.09;96775.69;5006456;28;20467;-67
2021/11/27 03:11:39;;;;;;;1.13;0.20;;;;;;;3.77;77.42;96784.72;4999522;28;20394;-66
2021/11/27 03:14:05;;;;;;;0.35;0.10;;;;;;;3.87;76.77;96787.38;5006609;28;20038;-66
2021/11/27 03:16:32;;;;;;;0.88;0.30;;;;;;;3.50;77.92;96769.88;4989887;28;20510;-65
2021/11/27 03:18:58;;;;;;;2.88;0.40;;;;;;;3.43;83.75;96795.97;4999923;28;20064;-65
2021/11/27 03:21:25;;;;;;;0.80;0.30;;;;;;;3.35;81.06;96814.06;5005195;28;20117;-65
2021/11/27 03:23:51;;;;;;;0.95;0.22;;;;;;;3.86;78.32;96823.03;5003699;28;20128;-65
2021/11/27 03:26:17;;;;;;;2.83;0.52;;;;;;;3.70;78.18;96805.53;5000506;28;20034;-65
2021/11/27 03:28:45;;;;;;;1.45;0.40;;;;;;;3.79;78.60;96830.53;4996873;28;20496;-67
2021/11/27 03:31:12;;;;;;;4.85;0.50;;;;;;;4.04;77.72;96831.50;4994575;28;20061;-66
2021/11/27 03:33:38;;;;;;;1.50;0.30;;;;;;;3.81;78.79;96841.69;5001663;28;20523;-66
2021/11/27 03:36:05;;;;;;;2.40;0.25;;;;;;;4.20;76.80;96873.00;5006220;28;20064;-66
2021/11/27 03:38:32;;;;;;;1.02;0.17;;;;;;;3.76;77.80;96860.34;5002237;28;20052;-65
2021/11/27 03:40:57;;;;;;;0.88;0.50;;;;;;;4.01;77.90;96878.13;4996898;28;20031;-65
2021/11/27 03:43:23;;;;;;;2.67;0.90;;;;;;;3.49;77.27;96880.03;4991162;28;20411;-65
2021/11/27 03:45:48;;;;;;;0.80;0.80;;;;;;;3.47;77.54;96903.47;5000752;28;20775;-64
2021/11/27 03:48:27;;;;;;;1.02;0.88;;;;;;;3.14;78.57;96937.47;5007517;28;20092;-64
2021/11/27 03:50:54;;;;;;;3.80;1.20;;;;;;;3.16;78.73;96930.84;4996779;28;20062;-65
2021/11/27 03:53:23;;;;;;;2.17;0.98;;;;;;;2.96;79.00;96944.88;4997007;28;20034;-65
2021/11/27 03:55:50;;;;;;;2.67;1.30;;;;;;;3.00;78.85;96923.91;5002712;28;20052;-66
2021/11/27 03:58:16;;;;;;;2.35;1.08;;;;;;;3.01;79.12;96920.19;5006600;28;20034;-66
2021/11/27 04:00:43;;;;;;;2.25;1.27;;;;;;;3.25;79.29;96949.75;5000472;28;20502;-65
2021/11/27 04:03:12;;;;;;;2.85;1.30;;;;;;;3.30;79.03;96954.28;4998233;28;20049;-66
2021/11/27 04:05:58;;;;;;;3.13;0.95;;;;;;;3.47;78.90;96968.13;4993907;28;20042;-66
2021/11/27 04:08:24;;;;;;;1.35;0.60;;;;;;;3.40;78.43;96964.94;5003402;28;20030;-65
2021/11/27 04:10:50;;;;;;;3.08;0.57;;;;;;;3.50;77.99;96977.44;5008402;28;20041;-65
2021/11/27 04:13:17;;;;;;;0.77;0.40;;;;;;;3.36;79.38;96996.56;4985052;28;20896;-65
2021/11/27 04:15:43;;;;;;;0.20;0.20;;;;;;;3.05;78.56;97009.78;5015052;28;20037;-65
2021/11/27 04:18:09;;;;;;;0.17;0.17;;;;;;;3.10;78.67;97000.25;4996716;28;20262;-66
2021/11/27 04:20:35;;;;;;;0.00;0.00;;;;;;;3.30;77.87;97040.19;5005832;28;20034;-66
2021/11/27 04:23:01;;;;;;;0.75;0.20;;;;;;;3.37;77.41;97040.75;5001306;28;20038;-66
2021/11/27 04:25:27;;;;;;;0.03;0.00;;;;;;;3.09;78.70;97063.28;5001427;28;20036;-66
2021/11/27 04:27:53;;;;;;;0.63;0.10;;;;;;;3.13;78.11;97071.53;4989614;28;20111;-66
2021/11/27 04:30:23;;;;;;;0.17;0.05;;;;;;;3.13;78.09;97082.97;5006485;28;20109;-66
2021/11/27 04:32:49;;;;;;;0.10;0.10;;;;;;;3.21;78.01;97092.31;4986363;28;20054;-66
2021/11/27 04:35:16;;;;;;;0.10;0.00;;;;;;;3.15;78.00;97102.13;5007791;28;20030;-67
2021/11/27 04:37:43;;;;;;;3.13;0.10;;;;;;;2.84;78.58;97101.16;4987890;28;20329;-67
2021/11/27 04:40:10;;;;;;;0.00;0.00;;;;;;;2.98;78.56;97125.44;5007301;28;20038;-67
2021/11/27 04:42:37;;;;;;;0.00;0.00;;;;;;;2.99;78.74;97121.72;5000679;28;20030;-67
2021/11/27 04:45:05;;;;;;;0.00;0.00;;;;;;;2.59;79.55;97124.66;4997796;28;20057;-68
2021/11/27 04:47:30;;;;;;;0.00;0.00;;;;;;;2.86;78.98;97117.66;4990826;28;20484;-68
2021/11/27 04:49:56;;;;;;;0.00;0.00;;;;;;;2.76;79.23;97123.72;4987841;28;20045;-67
2021/11/27 04:52:22;;;;;;;0.00;0.00;;;;;;;3.02;78.83;97143.28;4988777;28;20054;-68
2021/11/27 04:54:48;;;;;;;0.00;0.00;;;;;;;3.30;77.55;97151.94;5009647;28;20033;-67
2021/11/27 04:57:14;;;;;;;0.03;0.03;;;;;;;3.20;77.77;97152.69;4984472;28;20068;-67
2021/11/27 04:59:39;;;;;;;0.10;0.00;;;;;;;3.28;77.38;97156.72;5003068;28;20061;-67
2021/11/27 05:02:05;;;;;;;0.90;0.00;;;;;;;2.68;79.16;97183.47;5006574;28;20033;-67
2021/11/27 05:04:31;;;;;;;0.15;0.00;;;;;;;2.85;78.55;97172.69;4990030;28;20411;-68
2021/11/27 05:06:57;;;;;;;0.00;0.00;;;;;;;2.93;78.81;97185.53;5005015;28;20045;-67
2021/11/27 05:09:23;;;;;;;0.00;0.00;;;;;;;2.83;78.68;97192.59;4992222;28;20173;-67
2021/11/27 05:11:49;;;;;;;0.52;0.00;;;;;;;2.73;79.18;97223.38;5009001;28;21421;-67
2021/11/27 05:14:15;;;;;;;0.00;0.00;;;;;;;2.83;79.22;97233.31;4994076;28;20482;-69
2021/11/27 05:16:40;;;;;;;2.30;0.10;;;;;;;2.39;79.59;97231.59;5011394;28;20125;-71
2021/11/27 05:19:06;;;;;;;2.08;0.00;;;;;;;2.61;78.85;97238.69;4989526;28;20042;-72
2021/11/27 05:21:32;;;;;;;5.50;0.10;;;;;;;2.74;79.18;97262.19;5009819;28;20057;-72
2021/11/27 05:23:58;;;;;;;0.00;0.00;;;;;;;2.66;79.03;97256.56;4988679;28;20033;-71
2021/11/27 05:26:24;;;;;;;2.00;0.00;;;;;;;2.58;79.48;97274.53;5005518;28;20042;-70
2021/11/27 05:28:49;;;;;;;0.00;0.00;;;;;;;2.52;79.67;97272.88;5012006;28;20049;-71
2021/11/27 05:31:16;;;;;;;2.10;0.10;;;;;;;2.46;79.95;97293.28;4991325;28;20093;-71
2021/11/27 05:36:12;;;;;;;4.80;1.38;;;;;;;2.62;79.27;97323.47;5004981;28;20064;-72
2021/11/27 05:38:38;;;;;;;0.10;0.10;;;;;;;2.47;80.00;97316.16;4994490;28;20042;-71
2021/11/27 05:41:04;;;;;;;0.00;0.00;;;;;;;2.51;79.41;97337.69;5006160;28;20034;-70
2021/11/27 05:43:31;;;;;;;2.17;0.10;;;;;;;2.59;78.84;97329.28;5003841;28;20068;-71
2021/11/27 05:45:57;;;;;;;0.85;0.10;;;;;;;2.63;79.44;97338.34;4984465;28;20739;-71
2021/11/27 05:48:22;;;;;;;0.55;0.10;;;;;;;2.67;78.64;97337.88;4980426;28;20490;-71
2021/11/27 05:50:48;;;;;;;0.40;0.10;;;;;;;2.39;79.41;97339.69;5006722;28;20116;-71
2021/11/27 05:53:17;;;;;;;4.88;0.10;;;;;;;2.60;79.53;97340.72;4977673;28;20041;-71
2021/11/27 05:55:46;;;;;;;10.00;0.30;;;;;;;2.88;78.46;97347.66;5001019;28;20393;-71
2021/11/27 05:58:12;;;;;;;1.27;0.30;;;;;;;2.79;78.70;97354.50;4989941;28;20036;-71
2021/11/27 06:00:37;;;;;;;7.65;0.17;;;;;;;3.00;77.24;97360.00;5010697;28;20109;-71
2021/11/27 06:03:02;;;;;;;10.98;1.15;;;;;;;2.86;78.33;97362.25;4998673;28;20030;-71
2021/11/27 06:05:29;;;;;;;4.22;0.10;;;;;;;2.73;78.15;97358.16;5001693;28;20491;-72
2021/11/27 06:07:56;;;;;;;7.80;0.38;;;;;;;2.66;79.05;97363.66;5012320;28;20037;-72
2021/11/27 06:10:22;;;;;;;1.15;0.25;;;;;;;2.54;79.68;97377.06;4983726;28;20069;-72
2021/11/27 06:12:48;;;;;;;2.85;0.40;;;;;;;2.82;78.85;97382.41;5005117;28;20448;-69
2021/11/27 06:15:14;;;;;;;1.38;0.63;;;;;;;2.41;80.10;97398.69;4992054;28;20034;-69
2021/11/27 06:17:40;;;;;;;5.65;0.50;;;;;;;2.74;78.69;97403.06;5001471;28;20604;-69
2021/11/27 06:20:08;;;;;;;1.92;0.30;;;;;;;2.95;78.03;97400.63;4994783;28;20077;-69
2021/11/27 06:22:34;;;;;;;5.68;0.32;;;;;;;2.76;78.60;97416.91;5010350;28;20045;-68
2021/11/27 06:24:59;;;;;;;15.20;0.35;;;;;;;3.08;77.69;97415.41;4980462;28;20917;-68
2021/11/27 06:27:25;;;;;;;4.85;0.38;;;;;;;2.66;78.71;97416.03;5009382;28;20038;-68
2021/11/27 06:29:51;;;;;;;3.10;0.20;;;;;;;2.96;78.05;97441.34;4988481;28;20042;-68
2021/11/27 06:32:22;;;;;;;2.95;0.40;;;;;;;2.80;78.50;97429.72;5004465;28;20034;-72
2021/11/27 06:34:49;;;;;;;0.95;0.20;;;;;;;2.60;78.90;97439.84;5003590;28;20030;-71
2021/11/27 06:37:15;;;;;;;4.47;0.30;;;;;;;2.71;79.80;97443.44;5007254;28;20080;-70
2021/11/27 06:39:40;;;;;;;3.00;0.32;;;;;;;2.83;79.17;97450.47;4968063;28;1214899;-69
2021/11/27 06:42:07;;;;;;;5.35;0.20;;;;;;;2.89;77.87;97455.63;4991103;28;20054;-69
2021/11/27 06:44:33;;;;;;;134.30;10.75;;;;;;;2.90;79.26;97465.22;4979126;28;20044;-69
2021/11/27 06:46:59;;;;;;;1.05;0.30;;;;;;;3.09;77.79;97475.50;4993753;28;20552;-69
2021/11/27 06:49:27;;;;;;;168.52;8.27;;;;;;;2.31;80.17;97492.34;4993483;28;20040;-69
2021/11/27 06:51:52;;;;;;;20.38;0.73;;;;;;;2.82;78.58;97508.19;5001378;28;20391;-68
2021/11/27 06:54:18;;;;;;;227.35;6.55;;;;;;;2.95;78.40;97508.88;5008674;28;20054;-67
2021/11/27 06:56:44;;;;;;;298.35;6.22;;;;;;;2.75;78.69;97504.91;5006615;28;20117;-67
2021/11/27 06:59:10;;;;;;;13.48;0.50;;;;;;;3.13;76.85;97519.19;5000467;28;20133;-67
2021/11/27 07:01:35;;;;;;;16.45;0.93;;;;;;;2.77;78.84;97534.69;4997378;28;20041;-67
2021/11/27 07:04:01;;;;;;;306.85;7.22;;;;;;;2.56;79.36;97549.56;5000094;28;20034;-67
2021/11/27 07:06:26;;;;;;;3.58;0.30;;;;;;;2.69;79.25;97559.06;5002671;28;20034;-66
2021/11/27 07:08:52;;;;;;;136.90;5.72;;;;;;;2.44;79.82;97587.66;5012886;28;20042;-66
2021/11/27 07:11:17;;;;;;;5.22;0.73;;;;;;;2.92;78.18;97564.16;4993884;28;20033;-67
2021/11/27 07:13:43;;;;;;;108.43;2.92;;;;;;;3.07;76.90;97563.53;5004156;28;20030;-67
2021/11/27 07:16:09;;;;;;;80.22;2.45;;;;;;;2.99;77.51;97573.81;4989384;28;20052;-66
2021/11/27 07:18:34;;;;;;;91.57;3.45;;;;;;;2.90;77.44;97581.38;5009052;28;20120;-67
2021/11/27 07:21:00;;;;;;;104.85;3.15;;;;;;;2.85;77.31;97583.97;5000450;28;20038;-66
2021/11/27 07:23:26;;;;;;;15.98;4.28;;;;;;;3.08;77.24;97575.75;5006496;28;20122;-67
2021/11/27 07:25:51;;;;;;;13.07;1.45;;;;;;;3.12;77.62;97585.91;4993320;28;20048;-67
2021/11/27 07:28:18;;;;;;;42.33;1.60;;;;;;;3.22;76.19;97596.69;5004358;28;20125;-67
2021/11/27 07:30:44;;;;;;;11.83;0.93;;;;;;;3.27;76.59;97595.94;4648948;28;9999906;-67
2021/11/27 07:33:10;;;;;;;147.98;6.07;;;;;;;3.09;77.33;97595.19;5006369;28;20283;-69
2021/11/27 07:35:36;;;;;;;266.02;10.82;;;;;;;2.95;77.35;97597.41;4988665;28;20042;-67
2021/11/27 07:38:01;;;;;;;44.35;2.10;;;;;;;3.24;76.80;97602.56;5005201;28;20052;-67
2021/11/27 07:40:27;;;;;;;5.38;1.92;;;;;;;3.19;77.34;97599.84;5002353;28;20038;-67
2021/11/27 07:42:53;;;;;;;15.20;2.80;;;;;;;3.14;77.50;97615.72;5000667;28;20073;-67
2021/11/27 07:45:20;;;;;;;127.00;6.05;;;;;;;3.04;77.56;97625.19;4978950;28;20030;-67
2021/11/27 07:47:46;;;;;;;116.70;8.02;;;;;;;2.74;79.21;97638.88;4996414;28;20041;-67
2021/11/27 07:50:12;;;;;;;84.60;7.00;;;;;;;3.09;77.93;97635.09;4998610;28;20045;-66
2021/11/27 07:52:38;;;;;;;41.08;5.70;;;;;;;3.00;78.24;97637.38;4987693;28;20034;-66
2021/11/27 07:55:04;;;;;;;42.35;5.45;;;;;;;2.89;79.67;97647.06;4999905;28;20045;-67
2021/11/27 07:57:29;;;;;;;76.15;9.38;;;;;;;3.04;78.48;97653.66;4998775;28;20041;-67
2021/11/27 07:59:55;;;;;;;72.13;7.00;;;;;;;3.18;78.43;97654.91;4996994;28;20702;-71
2021/11/27 08:02:20;;;;;;;46.40;6.55;;;;;;;3.32;77.34;97692.59;5003931;28;20117;-70
2021/11/27 08:04:46;;;;;;;90.47;9.52;;;;;;;3.38;77.62;97677.50;4959126;28;20036;-71
2021/11/27 08:07:12;;;;;;;57.08;6.45;;;;;;;3.34;77.28;97687.81;4999314;28;20052;-71
2021/11/27 08:09:37;;;;;;;55.25;6.72;;;;;;;3.42;77.13;97697.25;4973395;28;20069;-72
2021/11/27 08:12:03;;;;;;;44.10;6.45;;;;;;;3.59;76.34;97693.72;4997835;28;20034;-72
2021/11/27 08:14:32;;;;;;;76.38;7.05;;;;;;;3.64;76.80;97704.44;4989905;28;20038;-73
2021/11/27 08:17:01;;;;;;;58.58;6.97;;;;;;;3.29;77.45;97709.03;5002502;28;20049;-78
2021/11/27 08:19:28;;;;;;;53.08;5.53;;;;;;;3.42;77.32;97702.56;5002753;28;20030;-77
2021/11/27 08:21:54;;;;;;;27.83;4.18;;;;;;;3.19;77.42;97714.22;4988031;28;20617;-76
2021/11/27 08:24:19;;;;;;;41.03;4.93;;;;;;;3.66;75.70;97718.31;5003216;28;20621;-78
2021/11/27 08:26:46;;;;;;;35.15;4.68;;;;;;;3.56;76.61;97731.50;4984580;28;20040;-79
2021/11/27 08:29:12;;;;;;;41.88;4.93;;;;;;;3.62;76.73;97739.31;4997408;28;20153;-79
2021/11/27 08:31:38;;;;;;;56.17;7.15;;;;;;;3.53;77.17;97742.63;4997052;28;20140;-83
2021/11/27 08:34:05;;;;;;;48.33;6.13;;;;;;;3.44;77.44;97775.00;5004117;28;20103;-80
2021/11/27 08:36:30;;;;;;;35.97;5.30;;;;;;;3.68;76.22;97755.34;5001891;28;20989;-79
2021/11/27 08:38:56;;;;;;;42.88;4.47;;;;;;;3.81;75.71;97771.75;4989337;28;20042;-79
2021/11/27 08:41:22;;;;;;;70.20;6.78;;;;;;;3.77;75.87;97762.66;5000328;28;20072;-79
2021/11/27 08:43:47;;;;;;;43.47;5.00;;;;;;;4.02;75.88;97765.88;5001457;28;20037;-80
2021/11/27 08:46:13;;;;;;;38.90;3.90;;;;;;;3.83;76.25;97768.88;4981850;28;20030;-76
2021/11/27 08:48:39;;;;;;;44.88;5.70;;;;;;;3.83;74.91;97784.03;4989373;28;20468;-78
2021/11/27 08:51:10;;;;;;;61.25;6.72;;;;;;;3.61;76.30;97784.81;5003019;28;20038;-78
2021/11/27 08:53:36;;;;;;;32.50;4.60;;;;;;;3.55;76.09;97791.94;5003598;28;20041;-77
2021/11/27 08:56:06;;;;;;;32.63;3.85;;;;;;;3.59;75.41;97782.41;4979373;28;20030;-77
2021/11/27 08:58:36;;;;;;;28.65;4.07;;;;;;;3.77;74.69;97791.94;4999259;28;20052;-77
2021/11/27 09:01:03;;;;;;;35.65;4.85;;;;;;;3.81;75.98;97798.38;4994292;28;20042;-77
2021/11/27 09:03:29;;;;;;;50.22;5.00;;;;;;;3.89;75.28;97801.69;4993865;28;20129;-77
2021/11/27 09:05:54;;;;;;;55.25;5.88;;;;;;;3.86;74.96;97807.50;4995900;28;20129;-74
2021/11/27 09:08:20;;;;;;;40.55;4.43;;;;;;;4.06;73.19;97798.97;4974186;28;20041;-72
2021/11/27 09:10:47;;;;;;;47.80;8.07;;;;;;;4.09;73.96;97814.47;4996426;28;20073;-69
2021/11/27 09:13:13;;;;;;;52.10;5.13;;;;;;;4.16;73.47;97799.09;5003218;28;20583;-69
2021/11/27 09:15:39;;;;;;;42.55;4.05;;;;;;;4.20;72.54;97818.84;4990340;28;20038;-70
2021/11/27 09:18:04;;;;;;;31.00;3.95;;;;;;;4.47;72.39;97823.44;4994349;28;20053;-67
2021/11/27 09:20:33;;;;;;;34.00;5.35;;;;;;;4.14;73.24;97833.19;5000658;28;20061;-69
2021/11/27 09:22:59;;;;;;;35.33;5.88;;;;;;;4.06;73.32;97862.91;4991391;28;20038;-69
2021/11/27 09:25:28;;;;;;;34.17;4.28;;;;;;;4.29;72.73;97840.53;5003011;28;20088;-69
2021/11/27 09:27:54;;;;;;;35.13;4.38;;;;;;;4.44;72.33;97871.91;4992294;28;20034;-68
2021/11/27 09:30:20;;;;;;;37.35;3.90;;;;;;;4.15;72.34;97863.28;4979982;28;20041;-68
2021/11/27 09:32:45;;;;;;;22.30;3.42;;;;;;;4.26;72.27;97865.00;4983357;28;20065;-68
2021/11/27 09:35:11;;;;;;;31.38;4.18;;;;;;;4.16;72.61;97862.22;4972149;28;20042;-70
2021/11/27 09:37:39;;;;;;;27.63;4.05;;;;;;;4.39;70.80;97880.63;4981087;28;20458;-68
2021/11/27 09:40:06;;;;;;;36.33;4.15;;;;;;;4.38;71.49;97876.34;4989118;28;20041;-67
2021/11/27 09:42:35;;;;;;;40.45;5.95;;;;;;;4.32;71.67;97868.56;4995217;28;20740;-67
2021/11/27 09:45:03;;;;;;;26.50;4.80;;;;;;;4.21;71.58;97870.28;4980525;28;20045;-68
2021/11/27 09:47:29;;;;;;;26.30;3.72;;;;;;;3.88;72.60;97875.47;4996603;28;20044;-69
2021/11/27 09:49:56;;;;;;;21.27;3.42;;;;;;;4.20;71.40;97892.66;4994606;28;20042;-69
2021/11/27 09:52:22;;;;;;;21.70;3.30;;;;;;;4.47;70.88;97891.94;5000736;28;20042;-67
2021/11/27 09:54:48;;;;;;;22.65;2.75;;;;;;;4.41;70.40;97904.41;4997381;28;20548;-70
2021/11/27 09:57:14;;;;;;;27.67;3.40;;;;;;;4.58;70.49;97891.00;4990996;28;20041;-68
2021/11/27 09:59:41;;;;;;;35.75;4.85;;;;;;;4.37;70.12;97914.72;4999394;28;20029;-67
2021/11/27 10:02:10;;;;;;;23.38;3.60;;;;;;;4.36;69.50;97893.66;4991612;28;20168;-67
2021/11/27 10:04:42;;;;;;;28.60;4.32;;;;;;;4.52;69.54;97903.47;4999569;28;20038;-67
2021/11/27 10:07:12;;;;;;;30.95;4.75;;;;;;;4.52;70.84;97908.00;4995257;28;20484;-67
2021/11/27 10:09:38;;;;;;;36.67;4.75;;;;;;;4.47;70.69;97916.72;4994298;28;20034;-68
2021/11/27 10:12:07;;;;;;;31.23;4.10;;;;;;;4.51;70.27;97923.19;4985703;28;20092;-68
2021/11/27 10:14:39;;;;;;;38.58;4.60;;;;;;;4.45;69.65;97926.84;4984101;28;20034;-68
2021/11/27 10:17:12;;;;;;;21.77;3.63;;;;;;;4.61;69.19;97911.84;4991657;28;20526;-68
2021/11/27 10:19:41;;;;;;;30.25;3.75;;;;;;;4.68;68.99;97925.78;5001142;28;20684;-68
2021/11/27 10:22:08;;;;;;;28.70;4.32;;;;;;;4.63;68.97;97928.41;4984684;28;20133;-66
2021/11/27 10:24:34;;;;;;;31.02;4.30;;;;;;;4.59;69.10;97940.63;4999653;28;20141;-66
2021/11/27 10:27:02;;;;;;;31.25;4.28;;;;;;;4.65;67.72;97949.47;4985982;28;20480;-67
2021/11/27 10:29:29;;;;;;;20.50;3.60;;;;;;;4.63;67.67;97946.25;4997988;28;20034;-68
2021/11/27 10:32:07;;;;;;;32.65;3.33;;;;;;;4.53;67.33;97938.94;4990542;28;20115;-68
2021/11/27 10:34:33;;;;;;;21.45;3.38;;;;;;;4.79;67.10;97960.59;4995994;28;20034;-68
2021/11/27 10:36:59;;;;;;;27.00;3.45;;;;;;;4.83;67.63;97972.38;4997378;28;20049;-69
2021/11/27 10:39:25;;;;;;;20.73;3.88;;;;;;;4.67;68.02;97961.53;4992756;28;20038;-66
2021/11/27 10:41:56;;;;;;;31.20;4.47;;;;;;;4.20;69.53;97981.41;4996630;28;20093;-67
2021/11/27 10:44:31;;;;;;;23.48;3.78;;;;;;;4.08;69.91;97972.69;4997975;28;20074;-66
2021/11/27 10:47:10;;;;;;;13.88;2.63;;;;;;;4.13;69.97;97964.78;4991205;28;20057;-66
2021/11/27 10:49:36;;;;;;;28.95;5.50;;;;;;;3.93;71.23;97989.25;4993651;28;20829;-67
2021/11/27 10:52:08;;;;;;;31.42;8.05;;;;;;;3.79;71.38;97992.22;4997373;28;20503;-66
2021/11/27 10:54:54;;;;;;;32.05;7.35;;;;;;;4.54;70.00;97991.22;4997925;28;20044;-67
2021/11/27 10:57:37;;;;;;;40.70;10.27;;;;;;;4.32;70.12;97986.63;4988843;28;20049;-67
2021/11/27 11:00:08;;;;;;;24.17;3.10;;;;;;;4.18;70.97;98001.34;4989498;28;20843;-68
2021/11/27 11:02:36;;;;;;;17.10;2.55;;;;;;;4.31;69.55;98000.22;4999593;28;20034;-69
2021/11/27 11:05:05;;;;;;;29.45;3.58;;;;;;;4.27;69.20;98004.41;4984474;28;20041;-69
2021/11/27 11:07:31;;;;;;;23.05;3.45;;;;;;;4.33;69.05;97996.22;4988122;28;20052;-68
2021/11/27 11:10:12;;;;;;;20.60;3.30;;;;;;;4.16;68.77;98012.25;4999640;28;20504;-68
2021/11/27 11:13:02;;;;;;;33.28;3.05;;;;;;;4.38;68.63;98008.84;4979075;28;20128;-68
2021/11/27 11:15:29;;;;;;;14.18;2.58;;;;;;;4.51;66.36;98018.38;5004476;28;20116;-69
2021/11/27 11:18:10;;;;;;;20.15;2.72;;;;;;;4.60;67.65;98032.91;4995180;28;20064;-68
2021/11/27 11:20:39;;;;;;;22.20;3.13;;;;;;;4.77;65.26;98027.50;5002715;28;20034;-69
2021/11/27 11:23:11;;;;;;;17.38;3.08;;;;;;;4.61;65.92;98018.50;5003592;28;20037;-69
2021/11/27 11:26:09;;;;;;;29.20;3.13;;;;;;;4.81;64.33;98033.16;5000824;28;20476;-69
2021/11/27 11:28:49;;;;;;;15.88;2.47;;;;;;;4.84;63.57;98054.81;5004280;28;20041;-69
2021/11/27 11:31:23;;;;;;;20.02;2.90;;;;;;;4.78;63.96;98047.78;4990022;28;20037;-69
2021/11/27 11:33:52;;;;;;;16.48;2.60;;;;;;;4.95;63.86;98055.75;5004606;28;20092;-70
2021/11/27 11:36:19;;;;;;;13.80;2.30;;;;;;;4.95;62.97;98053.09;4995716;28;20121;-69
2021/11/27 11:38:47;;;;;;;17.17;2.97;;;;;;;4.88;64.01;98072.97;5002322;28;20064;-69
2021/11/27 11:41:16;;;;;;;23.80;3.10;;;;;;;4.81;63.97;98073.97;5001392;28;20138;-70
2021/11/27 11:43:42;;;;;;;20.42;3.28;;;;;;;5.04;63.48;98071.34;4993376;28;20026;-69